createdAt,value
2023-01-30T00:03:45.341Z,-4.50
2023-01-30T00:08:47.517Z,-4.10
2023-01-30T00:13:50.812Z,-3.50
2023-01-30T00:18:52.706Z,-3.10
2023-01-30T00:23:54.574Z,-2.70
2023-01-30T00:28:56.389Z,-2.50
2023-01-30T00:33:58.206Z,-2.40
2023-01-30T00:39:00.112Z,-2.20
2023-01-30T00:44:28.211Z,-2.10
2023-01-30T00:49:31.271Z,-2.00
2023-01-30T00:54:33.837Z,-1.90
2023-01-30T00:59:35.675Z,-1.70
2023-01-30T01:04:43.372Z,-1.70
2023-01-30T01:09:45.727Z,-1.70
2023-01-30T01:14:47.570Z,-1.60
2023-01-30T01:19:49.569Z,-1.60
2023-01-30T01:24:51.436Z,-1.40
2023-01-30T01:29:55.547Z,-1.40
2023-01-30T01:34:57.386Z,-1.40
2023-01-30T01:40:17.884Z,-1.40
2023-01-30T01:45:22.406Z,-1.40
2023-01-30T01:50:47.499Z,-1.30
2023-01-30T01:55:51.484Z,-1.30
2023-01-30T02:00:55.348Z,-1.30
2023-01-30T02:05:58.989Z,-1.30
2023-01-30T02:11:08.583Z,-1.20
2023-01-30T02:16:10.465Z,-1.30
2023-01-30T02:21:43.718Z,-1.30
2023-01-30T02:26:57.750Z,-1.30
2023-01-30T02:32:17.584Z,-1.30
2023-01-30T02:37:22.205Z,-1.30
2023-01-30T02:42:32.234Z,-1.30
2023-01-30T02:47:39.040Z,-1.30
2023-01-30T02:52:41.171Z,-1.20
2023-01-30T02:57:43.112Z,-1.20
2023-01-30T03:03:08.223Z,-1.20
2023-01-30T03:08:28.408Z,-1.10
2023-01-30T03:13:43.469Z,-1.10
2023-01-30T03:18:46.310Z,-1.10
2023-01-30T03:23:48.147Z,-1.00
2023-01-30T03:28:51.041Z,-1.00
2023-01-30T03:33:53.167Z,-1.00
2023-01-30T03:38:55.009Z,-1.00
2023-01-30T03:43:56.848Z,-0.90
2023-01-30T03:48:58.690Z,-0.90
2023-01-30T03:54:00.673Z,-0.80
2023-01-30T03:59:02.623Z,-0.80
2023-01-30T04:04:04.537Z,-0.60
2023-01-30T04:09:06.403Z,-0.50
2023-01-30T04:14:08.496Z,-0.40
2023-01-30T04:19:10.337Z,-0.30
2023-01-30T04:24:12.342Z,-0.30
2023-01-30T04:29:14.165Z,-0.30
2023-01-30T04:34:16.158Z,-0.30
2023-01-30T04:39:19.409Z,-0.20
2023-01-30T04:44:22.290Z,-0.20
2023-01-30T04:49:24.118Z,-0.20
2023-01-30T04:54:26.017Z,-0.20
2023-01-30T04:59:27.944Z,-0.10
2023-01-30T05:04:29.910Z,0.00
2023-01-30T05:09:31.725Z,0.00
2023-01-30T05:14:35.547Z,0.00
2023-01-30T05:19:37.421Z,0.10
2023-01-30T05:24:39.268Z,0.10
2023-01-30T05:29:41.475Z,0.10
2023-01-30T05:34:43.338Z,0.10
2023-01-30T05:39:45.171Z,0.20
2023-01-30T05:44:47.057Z,0.20
2023-01-30T05:49:48.917Z,0.20
2023-01-30T05:54:50.910Z,0.20
2023-01-30T05:59:52.883Z,0.20
2023-01-30T06:04:54.753Z,0.20
2023-01-30T06:09:56.591Z,0.20
2023-01-30T06:15:00.356Z,0.10
2023-01-30T06:20:02.187Z,0.10
2023-01-30T06:25:05.005Z,0.10
2023-01-30T06:30:07.345Z,0.10
2023-01-30T06:35:09.684Z,0.10
2023-01-30T06:40:12.370Z,0.10
2023-01-30T06:45:19.127Z,0.10
2023-01-30T06:50:23.633Z,0.10
2023-01-30T06:55:26.831Z,0.10
2023-01-30T07:00:28.743Z,0.20
2023-01-30T07:05:30.700Z,0.20
2023-01-30T07:10:32.625Z,0.30
2023-01-30T07:15:34.587Z,0.30
2023-01-30T07:20:36.551Z,0.40
2023-01-30T07:25:38.367Z,0.40
2023-01-30T07:30:40.304Z,0.40
2023-01-30T07:35:42.181Z,0.40
2023-01-30T07:40:43.966Z,0.40
2023-01-30T07:45:47.895Z,0.50
2023-01-30T07:50:49.781Z,0.60
2023-01-30T07:55:51.788Z,0.60
2023-01-30T08:00:55.210Z,0.70
2023-01-30T08:05:57.139Z,0.80
2023-01-30T08:10:59.038Z,1.20
2023-01-30T08:16:05.638Z,1.60
2023-01-30T08:21:07.543Z,1.80
2023-01-30T08:26:09.340Z,1.90
2023-01-30T08:31:14.455Z,1.90
2023-01-30T08:36:16.343Z,2.00
2023-01-30T08:41:18.122Z,2.00
2023-01-30T08:46:23.437Z,2.00
2023-01-30T08:51:25.264Z,2.10
2023-01-30T08:56:27.185Z,2.20
2023-01-30T09:01:29.365Z,2.30
2023-01-30T09:06:31.472Z,2.30
2023-01-30T09:11:33.342Z,2.30
2023-01-30T09:16:35.218Z,2.30
2023-01-30T09:21:38.960Z,2.40
2023-01-30T09:26:44.836Z,2.50
2023-01-30T09:31:47.112Z,2.40
2023-01-30T09:36:56.260Z,2.30
2023-01-30T09:42:17.394Z,2.20
2023-01-30T09:47:31.047Z,2.20
2023-01-30T09:52:54.502Z,2.40
2023-01-30T09:57:59.111Z,2.50
2023-01-30T10:03:13.136Z,2.60
2023-01-30T10:08:33.382Z,2.80
2023-01-30T10:13:46.206Z,2.90
2023-01-30T10:18:47.984Z,2.80
2023-01-30T10:24:01.353Z,2.70
2023-01-30T10:29:08.837Z,2.60
2023-01-30T10:34:28.209Z,2.60
2023-01-30T10:39:55.945Z,2.60
2023-01-30T10:45:13.218Z,2.70
2023-01-30T10:50:39.428Z,2.70
2023-01-30T10:55:46.970Z,2.80
2023-01-30T11:01:06.713Z,2.80
2023-01-30T11:06:13.696Z,3.10
2023-01-30T11:11:39.018Z,3.20
2023-01-30T11:16:58.013Z,3.40
2023-01-30T11:22:05.096Z,3.70
2023-01-30T11:27:34.054Z,3.90
2023-01-30T11:32:36.011Z,4.10
2023-01-30T11:37:39.919Z,4.10
2023-01-30T11:42:44.922Z,3.80
2023-01-30T11:48:00.533Z,3.60
2023-01-30T11:53:17.648Z,3.40
2023-01-30T11:58:19.538Z,3.40
2023-01-30T12:03:24.291Z,3.40
2023-01-30T12:08:42.544Z,3.50
2023-01-30T12:13:45.706Z,3.50
2023-01-30T12:19:12.780Z,3.60
2023-01-30T12:24:26.055Z,3.60
2023-01-30T12:30:06.124Z,3.50
2023-01-30T12:35:18.087Z,3.40
2023-01-30T12:40:26.305Z,3.40
2023-01-30T12:45:31.170Z,3.40
2023-01-30T12:50:57.982Z,3.50
2023-01-30T12:56:31.970Z,3.50
2023-01-30T13:02:02.514Z,3.60
2023-01-30T13:07:07.169Z,3.70
2023-01-30T13:12:30.120Z,3.70
2023-01-30T13:17:34.378Z,3.80
2023-01-30T13:22:48.794Z,3.70
2023-01-30T13:27:57.384Z,3.80
2023-01-30T13:33:01.815Z,3.80
2023-01-30T13:38:04.652Z,3.70
2023-01-30T13:43:11.355Z,3.60
2023-01-30T13:48:31.701Z,3.60
2023-01-30T13:53:49.020Z,3.60
2023-01-30T13:58:58.153Z,3.50
2023-01-30T14:04:39.456Z,3.60
2023-01-30T14:10:01.904Z,3.60
2023-01-30T14:15:16.149Z,3.60
2023-01-30T14:20:20.815Z,3.60
2023-01-30T14:25:22.659Z,3.60
2023-01-30T14:30:58.916Z,3.60
2023-01-30T14:36:00.655Z,3.50
2023-01-30T14:41:02.792Z,3.40
2023-01-30T14:46:33.020Z,3.40
2023-01-30T14:51:42.010Z,3.30
2023-01-30T14:56:46.460Z,3.30
2023-01-30T15:02:08.258Z,3.20
2023-01-30T15:07:22.572Z,3.10
2023-01-30T15:12:33.779Z,3.10
2023-01-30T15:17:58.274Z,3.00
2023-01-30T15:23:48.866Z,3.00
2023-01-30T15:29:08.944Z,3.00
2023-01-30T15:34:20.302Z,3.00
2023-01-30T15:39:24.152Z,3.00
2023-01-30T15:45:04.303Z,2.90
2023-01-30T15:50:10.058Z,2.90
2023-01-30T15:55:28.104Z,2.90
2023-01-30T16:00:36.253Z,2.90
2023-01-30T16:05:47.072Z,2.90
2023-01-30T16:10:51.975Z,2.80
2023-01-30T16:16:13.367Z,2.80
2023-01-30T16:21:24.210Z,2.90
2023-01-30T16:26:26.163Z,2.90
2023-01-30T16:31:32.875Z,2.90
2023-01-30T16:36:41.276Z,2.80
2023-01-30T16:41:43.311Z,2.80
2023-01-30T16:46:55.553Z,2.80
2023-01-30T16:52:15.370Z,2.80
2023-01-30T16:57:37.610Z,2.80
2023-01-30T17:02:50.150Z,2.80
2023-01-30T17:07:52.607Z,2.90
2023-01-30T17:12:55.670Z,2.90
2023-01-30T17:17:57.658Z,2.90
2023-01-30T17:23:03.839Z,2.80
2023-01-30T17:28:07.651Z,2.80
2023-01-30T17:33:11.210Z,2.80
2023-01-30T17:38:13.183Z,2.80
2023-01-30T17:43:15.760Z,2.70
2023-01-30T17:48:17.602Z,2.70
2023-01-30T17:53:19.381Z,2.60
2023-01-30T17:58:23.867Z,2.60
2023-01-30T18:03:25.716Z,2.60
2023-01-30T18:08:27.536Z,2.60
2023-01-30T18:13:29.346Z,2.60
2023-01-30T18:18:31.194Z,2.70
2023-01-30T18:23:33.093Z,2.70
2023-01-30T18:28:34.982Z,2.70
2023-01-30T18:33:37.769Z,2.70
2023-01-30T18:38:39.764Z,2.70
2023-01-30T18:43:42.610Z,2.80
2023-01-30T18:48:45.776Z,2.80
2023-01-30T18:53:49.245Z,2.90
2023-01-30T18:58:52.852Z,3.00
2023-01-30T19:04:00.246Z,3.00
2023-01-30T19:09:02.311Z,3.00
2023-01-30T19:14:04.534Z,3.10
2023-01-30T19:19:07.643Z,3.10
2023-01-30T19:24:14.636Z,3.20
2023-01-30T19:29:18.228Z,3.20
2023-01-30T19:34:20.105Z,3.20
2023-01-30T19:39:22.271Z,3.20
2023-01-30T19:44:24.210Z,3.20
2023-01-30T19:49:26.139Z,3.10
2023-01-30T19:54:28.382Z,3.10
2023-01-30T19:59:30.400Z,3.00
2023-01-30T20:04:32.482Z,3.00
2023-01-30T20:09:39.771Z,3.00
2023-01-30T20:14:41.578Z,2.90
2023-01-30T20:19:43.377Z,2.90
2023-01-30T20:24:45.363Z,2.90
2023-01-30T20:29:47.183Z,3.00
2023-01-30T20:34:49.000Z,3.00
2023-01-30T20:39:51.409Z,3.10
2023-01-30T20:44:53.427Z,3.20
2023-01-30T20:49:55.266Z,3.20
2023-01-30T20:54:57.318Z,3.20
2023-01-30T20:59:59.387Z,3.20
2023-01-30T21:05:01.522Z,3.20
2023-01-30T21:10:03.719Z,3.20
2023-01-30T21:15:06.310Z,3.20
2023-01-30T21:20:08.710Z,3.30
2023-01-30T21:25:11.225Z,3.30
2023-01-30T21:30:16.707Z,3.50
2023-01-30T21:35:18.811Z,3.70
2023-01-30T21:40:43.470Z,3.70
2023-01-30T21:45:45.453Z,3.60
2023-01-30T21:50:49.103Z,3.60
2023-01-30T21:55:52.339Z,3.60
2023-01-30T22:00:55.282Z,3.60
2023-01-30T22:05:57.258Z,3.50
2023-01-30T22:11:15.296Z,3.50
2023-01-30T22:16:22.474Z,3.40
2023-01-30T22:21:26.462Z,3.40
2023-01-30T22:26:32.035Z,3.40
2023-01-30T22:31:36.261Z,3.40
2023-01-30T22:36:38.394Z,3.40
2023-01-30T22:41:40.543Z,3.50
2023-01-30T22:46:42.366Z,3.90
2023-01-30T22:51:44.281Z,4.10
2023-01-30T22:56:47.980Z,4.20
2023-01-30T23:01:50.980Z,4.20
2023-01-30T23:06:52.836Z,4.20
2023-01-30T23:12:15.500Z,4.30
2023-01-30T23:17:35.988Z,4.40
2023-01-30T23:22:38.980Z,4.30
2023-01-30T23:27:40.865Z,4.30
2023-01-30T23:32:42.662Z,4.20
2023-01-30T23:38:03.079Z,4.20
2023-01-30T23:43:04.914Z,4.10
2023-01-30T23:48:08.472Z,4.20
2023-01-30T23:53:10.778Z,4.20
2023-01-30T23:58:12.556Z,4.20
